createdAt,value
2019-05-21T00:02:22.305Z,14.87
2019-05-21T00:05:26.748Z,17.23
2019-05-21T00:08:30.729Z,17.77
2019-05-21T00:11:34.987Z,18.23
2019-05-21T00:14:39.146Z,22.93
2019-05-21T00:17:43.309Z,16.27
2019-05-21T00:20:47.335Z,15.03
2019-05-21T00:23:51.503Z,14.80
2019-05-21T00:26:55.630Z,17.93
2019-05-21T00:30:35.743Z,19.30
2019-05-21T00:34:15.809Z,16.83
2019-05-21T00:37:55.769Z,15.47
2019-05-21T00:41:35.882Z,17.97
2019-05-21T00:44:42.929Z,15.17
2019-05-21T00:47:47.089Z,14.93
2019-05-21T00:50:51.440Z,18.90
2019-05-21T00:53:55.459Z,18.03
2019-05-21T00:56:59.554Z,16.90
2019-05-21T01:00:04.198Z,15.80
2019-05-21T01:03:08.625Z,13.80
2019-05-21T01:06:12.894Z,14.87
2019-05-21T01:09:17.066Z,13.07
2019-05-21T01:12:21.166Z,14.83
2019-05-21T01:15:25.316Z,14.07
2019-05-21T01:18:29.376Z,14.27
2019-05-21T01:21:33.525Z,13.70
2019-05-21T01:24:37.679Z,12.47
2019-05-21T01:27:41.921Z,12.27
2019-05-21T01:30:45.850Z,12.40
2019-05-21T01:33:49.706Z,11.77
2019-05-21T01:36:53.575Z,16.43
2019-05-21T01:39:57.460Z,11.27
2019-05-21T01:43:03.366Z,13.83
2019-05-21T01:46:06.860Z,12.70
2019-05-21T01:49:10.682Z,13.07
2019-05-21T01:52:14.595Z,12.43
2019-05-21T01:55:18.428Z,11.80
2019-05-21T01:58:22.339Z,11.40
2019-05-21T02:01:26.215Z,10.20
2019-05-21T02:04:30.111Z,10.43
2019-05-21T02:07:33.933Z,10.57
2019-05-21T02:10:37.830Z,11.80
2019-05-21T02:13:41.724Z,13.83
2019-05-21T02:16:45.589Z,12.57
2019-05-21T02:19:49.442Z,13.60
2019-05-21T02:22:53.351Z,14.03
2019-05-21T02:25:57.213Z,12.60
2019-05-21T02:29:01.121Z,13.33
2019-05-21T02:32:04.961Z,19.40
2019-05-21T02:35:08.901Z,26.10
2019-05-21T02:38:12.760Z,26.17
2019-05-21T02:41:16.629Z,26.37
2019-05-21T02:44:20.476Z,31.23
2019-05-21T02:47:24.410Z,30.20
2019-05-21T02:50:28.231Z,27.97
2019-05-21T02:53:34.600Z,25.77
2019-05-21T02:56:37.635Z,21.10
2019-05-21T02:59:43.137Z,25.47
2019-05-21T03:02:47.000Z,29.47
2019-05-21T03:05:50.905Z,26.00
2019-05-21T03:08:54.735Z,24.67
2019-05-21T03:11:58.639Z,22.37
2019-05-21T03:15:02.470Z,23.37
2019-05-21T03:18:06.357Z,22.03
2019-05-21T03:21:10.210Z,22.83
2019-05-21T03:24:14.122Z,21.20
2019-05-21T03:27:17.953Z,21.07
2019-05-21T03:30:21.878Z,20.47
2019-05-21T03:33:25.750Z,27.03
2019-05-21T03:36:33.352Z,25.60
2019-05-21T03:39:35.161Z,19.00
2019-05-21T03:42:39.090Z,20.63
2019-05-21T03:45:42.910Z,20.37
2019-05-21T03:48:46.837Z,17.67
2019-05-21T03:51:50.741Z,16.83
2019-05-21T03:54:54.679Z,19.93
2019-05-21T03:57:58.547Z,17.17
2019-05-21T04:01:02.422Z,20.10
2019-05-21T04:04:06.283Z,19.10
2019-05-21T04:07:10.156Z,17.90
2019-05-21T04:10:15.483Z,18.87
2019-05-21T04:13:20.328Z,15.57
2019-05-21T04:16:32.018Z,17.80
2019-05-21T04:19:42.680Z,16.57
2019-05-21T04:22:55.209Z,15.10
2019-05-21T04:25:59.262Z,15.03
2019-05-21T04:29:03.095Z,14.27
2019-05-21T04:32:07.051Z,13.93
2019-05-21T04:35:10.931Z,14.17
2019-05-21T04:38:14.790Z,12.50
2019-05-21T04:41:18.657Z,11.87
2019-05-21T04:44:22.549Z,10.40
2019-05-21T04:47:26.362Z,13.50
2019-05-21T04:50:30.311Z,11.03
2019-05-21T04:53:34.238Z,10.00
2019-05-21T04:56:38.099Z,8.70
2019-05-21T04:59:42.002Z,11.73
2019-05-21T05:02:45.810Z,9.10
2019-05-21T05:05:49.727Z,7.90
2019-05-21T05:08:53.612Z,8.80
2019-05-21T05:11:57.485Z,8.23
2019-05-21T05:15:01.348Z,8.80
2019-05-21T05:18:05.400Z,7.80
2019-05-21T05:21:09.214Z,10.90
2019-05-21T05:24:13.110Z,7.87
2019-05-21T05:27:16.996Z,8.87
2019-05-21T05:30:21.013Z,6.77
2019-05-21T05:33:24.921Z,8.33
2019-05-21T05:36:28.830Z,7.67
2019-05-21T05:39:32.740Z,7.80
2019-05-21T05:42:36.609Z,8.83
2019-05-21T05:45:40.510Z,9.07
2019-05-21T05:48:55.107Z,9.10
2019-05-21T05:51:59.019Z,8.50
2019-05-21T05:55:02.931Z,9.83
2019-05-21T05:58:06.870Z,9.53
2019-05-21T06:01:10.731Z,12.17
2019-05-21T06:04:14.620Z,6.53
2019-05-21T06:07:18.540Z,8.33
2019-05-21T06:10:22.416Z,8.87
2019-05-21T06:13:26.350Z,8.47
2019-05-21T06:16:30.156Z,7.40
2019-05-21T06:19:34.027Z,7.87
2019-05-21T06:22:37.846Z,7.97
2019-05-21T06:25:41.732Z,8.50
2019-05-21T06:28:45.639Z,10.33
2019-05-21T06:31:49.451Z,8.27
2019-05-21T06:34:53.334Z,8.00
2019-05-21T06:37:57.209Z,7.60
2019-05-21T06:41:01.100Z,7.03
2019-05-21T06:44:05.225Z,7.27
2019-05-21T06:47:09.049Z,6.70
2019-05-21T06:50:13.170Z,6.63
2019-05-21T06:53:17.020Z,7.53
2019-05-21T06:56:20.896Z,8.30
2019-05-21T06:59:24.728Z,7.27
2019-05-21T07:02:28.614Z,10.27
2019-05-21T07:05:32.497Z,10.77
2019-05-21T07:08:36.421Z,16.77
2019-05-21T07:11:40.230Z,15.70
2019-05-21T07:14:44.090Z,14.00
2019-05-21T07:17:48.005Z,15.47
2019-05-21T07:20:51.833Z,18.60
2019-05-21T07:23:55.708Z,16.00
2019-05-21T07:26:59.654Z,11.70
2019-05-21T07:30:05.081Z,10.57
2019-05-21T07:33:09.036Z,18.07
2019-05-21T07:36:12.981Z,11.83
2019-05-21T07:39:16.879Z,15.20
2019-05-21T07:42:20.745Z,12.40
2019-05-21T07:45:24.589Z,14.47
2019-05-21T07:48:28.487Z,16.77
2019-05-21T07:51:32.284Z,13.57
2019-05-21T07:54:36.166Z,10.33
2019-05-21T07:57:40.013Z,13.27
2019-05-21T08:00:43.969Z,10.23
2019-05-21T08:03:47.826Z,9.57
2019-05-21T08:06:51.761Z,14.43
2019-05-21T08:09:55.589Z,9.30
2019-05-21T08:12:59.497Z,8.97
2019-05-21T08:16:03.336Z,7.50
2019-05-21T08:19:07.277Z,7.47
2019-05-21T08:22:11.118Z,13.13
2019-05-21T08:25:15.247Z,10.20
2019-05-21T08:28:19.176Z,11.60
2019-05-21T08:31:23.061Z,8.90
2019-05-21T08:34:26.942Z,10.90
2019-05-21T08:37:30.797Z,13.70
2019-05-21T08:40:34.707Z,7.87
2019-05-21T08:43:38.560Z,10.97
2019-05-21T08:46:42.398Z,10.93
2019-05-21T08:49:46.442Z,8.73
2019-05-21T08:52:50.309Z,8.57
2019-05-21T08:55:54.247Z,10.97
2019-05-21T08:58:58.118Z,8.73
2019-05-21T09:02:01.977Z,10.80
2019-05-21T09:05:07.933Z,7.63
2019-05-21T09:08:11.785Z,9.00
2019-05-21T09:11:15.676Z,9.77
2019-05-21T09:14:19.557Z,10.40
2019-05-21T09:17:24.879Z,5.63
2019-05-21T09:20:28.749Z,8.93
2019-05-21T09:23:32.644Z,5.87
2019-05-21T09:26:36.526Z,8.00
2019-05-21T09:29:40.389Z,7.10
2019-05-21T09:32:44.263Z,6.30
2019-05-21T09:35:48.115Z,6.93
2019-05-21T09:38:51.952Z,7.70
2019-05-21T09:41:55.830Z,5.60
2019-05-21T09:44:59.700Z,6.97
2019-05-21T09:48:03.566Z,4.90
2019-05-21T09:51:07.439Z,4.13
2019-05-21T09:54:11.402Z,8.33
2019-05-21T09:57:16.826Z,4.87
2019-05-21T10:00:34.129Z,7.77
2019-05-21T10:03:42.205Z,6.03
2019-05-21T10:06:46.187Z,5.13
2019-05-21T10:09:49.990Z,6.27
2019-05-21T10:12:53.851Z,4.73
2019-05-21T10:16:01.206Z,6.50
2019-05-21T10:19:03.796Z,3.33
2019-05-21T10:22:07.778Z,3.93
2019-05-21T10:25:12.117Z,7.07
2019-05-21T10:28:15.963Z,6.07
2019-05-21T10:31:19.832Z,6.13
2019-05-21T10:34:23.784Z,4.03
2019-05-21T10:37:27.691Z,5.47
2019-05-21T10:40:31.632Z,3.50
2019-05-21T10:43:35.515Z,3.80
2019-05-21T10:46:39.350Z,6.23
2019-05-21T10:49:43.261Z,5.60
2019-05-21T10:52:47.109Z,4.87
2019-05-21T10:55:50.980Z,5.23
2019-05-21T10:58:54.824Z,6.27
2019-05-21T11:02:15.240Z,7.03
2019-05-21T11:05:28.853Z,4.63
2019-05-21T11:08:31.923Z,5.00
2019-05-21T11:11:35.777Z,5.50
2019-05-21T11:14:39.661Z,5.03
2019-05-21T11:17:59.009Z,5.27
2019-05-21T11:20:48.966Z,5.97
2019-05-21T11:23:52.941Z,8.40
2019-05-21T11:26:56.946Z,11.30
2019-05-21T11:30:00.795Z,5.47
2019-05-21T11:33:04.712Z,10.20
2019-05-21T11:36:08.536Z,9.27
2019-05-21T11:39:12.491Z,8.53
2019-05-21T11:42:16.397Z,8.90
2019-05-21T11:45:31.769Z,6.17
2019-05-21T11:48:26.015Z,6.33
2019-05-21T11:51:29.981Z,6.03
2019-05-21T11:54:33.796Z,6.07
2019-05-21T11:57:37.739Z,7.10
2019-05-21T12:00:41.828Z,12.97
2019-05-21T12:03:45.741Z,6.27
2019-05-21T12:06:49.585Z,5.93
2019-05-21T12:09:53.469Z,10.63
2019-05-21T12:12:57.321Z,6.60
2019-05-21T12:16:01.208Z,8.83
2019-05-21T12:19:07.994Z,7.03
2019-05-21T12:22:10.789Z,9.60
2019-05-21T12:25:14.684Z,7.90
2019-05-21T12:28:18.577Z,7.90
2019-05-21T12:31:22.427Z,6.53
2019-05-21T12:34:26.353Z,6.37
2019-05-21T12:37:30.222Z,8.33
2019-05-21T12:40:34.109Z,9.10
2019-05-21T12:43:37.948Z,9.93
2019-05-21T12:46:41.823Z,6.90
2019-05-21T12:49:45.695Z,6.50
2019-05-21T12:52:49.588Z,8.43
2019-05-21T12:55:53.470Z,7.23
2019-05-21T12:59:00.673Z,9.83
2019-05-21T13:02:02.882Z,8.73
2019-05-21T13:05:11.085Z,10.67
2019-05-21T13:08:13.420Z,8.13
2019-05-21T13:11:17.326Z,10.27
2019-05-21T13:14:21.199Z,11.00
2019-05-21T13:17:25.073Z,9.93
2019-05-21T13:20:28.981Z,13.37
2019-05-21T13:23:32.846Z,11.77
2019-05-21T13:26:36.706Z,13.37
2019-05-21T13:29:40.615Z,15.77
2019-05-21T13:32:44.479Z,10.17
2019-05-21T13:35:48.358Z,10.87
2019-05-21T13:38:52.178Z,10.17
2019-05-21T13:41:56.061Z,10.20
2019-05-21T13:44:59.927Z,10.77
2019-05-21T13:48:03.832Z,14.37
2019-05-21T13:51:07.714Z,12.97
2019-05-21T13:54:11.577Z,10.53
2019-05-21T13:57:15.461Z,10.93
2019-05-21T14:00:24.946Z,10.23
2019-05-21T14:03:28.800Z,10.13
2019-05-21T14:06:32.768Z,10.17
2019-05-21T14:09:36.582Z,10.37
2019-05-21T14:12:40.553Z,10.73
2019-05-21T14:15:44.405Z,9.47
2019-05-21T14:18:48.313Z,11.17
2019-05-21T14:21:52.282Z,13.70
2019-05-21T14:24:56.189Z,15.77
2019-05-21T14:28:00.029Z,14.67
2019-05-21T14:31:04.408Z,23.13
2019-05-21T14:34:08.388Z,16.23
2019-05-21T14:37:12.281Z,17.80
2019-05-21T16:45:10.646Z,9.27
2019-05-21T16:48:14.539Z,9.87
2019-05-21T16:51:20.109Z,11.93
2019-05-21T16:54:24.123Z,8.20
2019-05-21T17:09:15.957Z,11.07
2019-05-21T17:12:19.829Z,9.70
2019-05-21T17:15:30.528Z,8.47
2019-05-21T17:18:34.752Z,11.97
2019-05-21T17:21:41.435Z,9.80
2019-05-21T17:24:45.304Z,9.03
2019-05-21T17:27:56.574Z,9.00
2019-05-21T17:35:04.324Z,11.90
2019-05-21T17:38:25.095Z,10.50
2019-05-21T17:41:25.627Z,16.20
2019-05-21T17:44:29.781Z,23.23
2019-05-21T17:59:11.600Z,30.07
2019-05-21T18:02:16.355Z,18.77
2019-05-21T18:05:25.455Z,16.77
2019-05-21T18:08:30.924Z,15.83
2019-05-21T18:11:35.153Z,10.00
2019-05-21T19:19:21.247Z,11.00
2019-05-21T19:22:27.594Z,10.67
2019-05-21T19:25:31.481Z,11.33
2019-05-21T19:28:35.835Z,10.57
2019-05-21T19:31:39.910Z,11.50
2019-05-21T19:34:44.245Z,13.27
2019-05-21T19:37:49.087Z,8.17
2019-05-21T19:40:53.630Z,9.57
2019-05-21T19:43:58.455Z,11.30
2019-05-21T19:47:02.965Z,8.20
2019-05-21T19:50:08.239Z,8.43
2019-05-21T19:53:12.719Z,9.03
2019-05-21T19:56:17.619Z,9.23
2019-05-21T19:59:22.978Z,14.17
2019-05-21T20:02:29.915Z,9.57
2019-05-21T20:05:34.101Z,10.13
2019-05-21T20:08:38.288Z,11.03
2019-05-21T20:11:42.541Z,8.60
2019-05-21T20:14:46.931Z,12.83
2019-05-21T20:18:06.234Z,12.67
2019-05-21T20:20:59.608Z,12.97
2019-05-21T20:24:12.797Z,11.90
2019-05-21T20:27:17.920Z,16.87
2019-05-21T20:30:24.437Z,11.87
2019-05-21T20:33:29.336Z,12.63
2019-05-21T20:36:35.476Z,13.17
2019-05-21T20:39:41.093Z,13.03
2019-05-21T20:42:46.981Z,11.43
2019-05-21T20:45:51.041Z,11.47
2019-05-21T20:48:55.609Z,13.20
2019-05-21T20:52:18.022Z,14.43
2019-05-21T20:55:14.328Z,13.00
2019-05-21T20:58:18.958Z,13.47
2019-05-21T21:01:25.249Z,11.73
2019-05-21T21:04:29.963Z,12.77
2019-05-21T21:07:35.153Z,9.53
2019-05-21T21:10:40.256Z,11.33
2019-05-21T21:13:45.199Z,9.93
2019-05-21T21:16:49.801Z,8.67
2019-05-21T21:19:54.043Z,9.67
2019-05-21T21:22:58.084Z,9.93
2019-05-21T21:26:02.479Z,7.63
2019-05-21T21:29:07.209Z,7.87
2019-05-21T21:32:11.392Z,11.10
2019-05-21T21:35:16.016Z,5.50
2019-05-21T21:38:24.946Z,13.30
2019-05-21T21:41:29.541Z,6.53
2019-05-21T21:44:34.536Z,5.40
2019-05-21T21:47:38.583Z,4.30
2019-05-21T21:50:42.764Z,7.63
2019-05-21T21:53:47.304Z,7.00
2019-05-21T21:56:51.212Z,3.70
2019-05-21T21:59:55.706Z,8.20
2019-05-21T22:03:02.535Z,4.20
2019-05-21T22:06:09.154Z,4.00
2019-05-21T22:09:16.296Z,3.63
2019-05-21T22:12:20.515Z,3.80
2019-05-21T22:15:24.708Z,5.23
2019-05-21T22:18:29.285Z,3.63
2019-05-21T22:21:34.332Z,3.67
2019-05-21T22:24:38.351Z,4.97
2019-05-21T22:27:42.198Z,4.40
2019-05-21T22:30:46.575Z,4.73
2019-05-21T22:33:50.444Z,3.80
2019-05-21T22:36:54.364Z,5.73
2019-05-21T22:40:11.676Z,4.67
2019-05-21T22:43:15.629Z,4.83
2019-05-21T22:46:19.552Z,4.97
2019-05-21T22:49:23.984Z,5.43
2019-05-21T22:52:27.998Z,6.20
2019-05-21T22:55:33.526Z,5.00
2019-05-21T22:58:37.507Z,8.10
2019-05-21T23:01:41.856Z,3.67
2019-05-21T23:04:45.956Z,9.90
2019-05-21T23:07:50.009Z,3.87
2019-05-21T23:10:53.903Z,3.33
2019-05-21T23:13:57.843Z,6.70
2019-05-21T23:17:01.931Z,11.43
2019-05-21T23:20:08.702Z,3.73
2019-05-21T23:23:12.949Z,5.73
2019-05-21T23:26:17.816Z,5.57
2019-05-21T23:29:22.943Z,3.93
2019-05-21T23:32:26.941Z,5.03
2019-05-21T23:35:30.979Z,3.90
2019-05-21T23:38:36.672Z,7.40
2019-05-21T23:41:41.837Z,4.93
2019-05-21T23:44:45.717Z,5.13
2019-05-21T23:47:50.187Z,7.80
2019-05-21T23:50:54.258Z,6.87
2019-05-21T23:53:58.726Z,7.23
2019-05-21T23:57:05.556Z,8.57
